The Sea Ranch, CA (95497)

10:58 AM PDT on September 17, 2014 (GMT -0700)
The Sea Ranch | Change Station
CLOSE
Current Station
Personal Weather Station
Location: Sea Ranch, CA
Elevation: 43 ft
Nearby Weather Stations
Active Advisory: Beach Hazard Statement

Elev 43 ft 38.74 °N, 123.50 °W | Updated 1 minute ago

Scattered Clouds
Scattered Clouds
68.9 °F
Feels Like 68.9 °F
N
7.0
Wind Variable Wind from SSE
Gusts 10.0 mph

Today
High -- | Low -- °F
--% Chance of Precip.
Yesterday
High -- | Low -- °F
Precip. -- in
6:57 AM 7:18 PM
Waning Crescent, 34% visible
Pressure 29.80 in
Visibility 10.0 miles
Clouds Scattered Clouds 1100 ft
Dew Point 65 °F
Humidity 87%
Rainfall 0.00 in
Snow Depth 0 in , 0 in , 0 in
UV 2 out of 12
Pollen 5.10 out of 12
Air Quality Not available.
Flu Activity Not available.
SPECI KUKI 171618Z AUTO 16008KT 10SM SCT011 17/13 A2980 RMK AO2 T01670128

More Conditions Fewer Conditions

Pressure 29.80 in
Visibility 10.0 miles
Clouds Scattered Clouds 1100 ft
Dew Point 65 °F
Humidity 87%
Rainfall 0.00 in
Snow Depth 0 in , 0 in , 0 in
UV 2 out of 12
Pollen 5.10 out of 12
Air Quality Not available.
Flu Activity Not available.
SPECI KUKI 171618Z AUTO 16008KT 10SM SCT011 17/13 A2980 RMK AO2 T01670128

More Conditions Fewer Conditions

10-Day Weather Forecast

Almanac

Astronomy

Sep. 17, 2014 Rise Set
Actual Time 6:57 AM PDT 7:18 PM PDT
Civil Twilight 6:30 AM PDT 7:45 PM PDT
Nautical Twilight 5:59 AM PDT 8:16 PM PDT
Astronomical Twilight 5:27 AM PDT 8:48 PM PDT
Moon 1:04 AM PDT 3:30 PM PDT
Length of Visible Light 13h 14m
Length of Day
12h 21m
Tomorrow will be 2m 30s shorter.
Waning Crescent, 34% of the Moon is Illuminated
Today
Waning Crescent
Sep 24
New
Oct 1
First Quarter
Oct 8
Full
Oct 15
Last Quarter

Today's Extremes

State Highs State Lows

Community

WunderPhotos

Upload Photos

1,754,111 photos uploaded!

Nearby

Snow Depth

Station Depth Elevation
Tahoe City Cross 0 in 6750 ft
Adin Mountain 0 in 6200 ft
Leavitt Lake 0 in 9400 ft
Spratt Creek 0 in 6200 ft
Forestdale Creek 0 in 8029 ft

Earthquake Activity

City Distance Mag. Time & Date
Cobb, California 41 miles 2.7 1:23 PM PDT
2014-09-16
Minimum magnitude displayed is 2.5.

Coastal Water Temperatures

Place Temperature
Point Reyes, CA 63.0 °F
Arena Cove, CA 59.0 °F
San Francisco, CA 64.9 °F
Richmond, CA 66.9 °F

Nearby Weather Stations